sensor_id;sensor_type;location;lat;lon;timestamp;temperature;humidity
42965;DHT22;28604;51.204;22.552;2024-03-02T00:00:21;7.00;92.60
42965;DHT22;28604;51.204;22.552;2024-03-02T00:03:07;7.00;92.50
42965;DHT22;28604;51.204;22.552;2024-03-02T00:05:35;7.00;92.60
42965;DHT22;28604;51.204;22.552;2024-03-02T00:08:05;7.00;92.60
42965;DHT22;28604;51.204;22.552;2024-03-02T00:10:39;7.00;92.60
42965;DHT22;28604;51.204;22.552;2024-03-02T00:13:08;7.00;92.50
42965;DHT22;28604;51.204;22.552;2024-03-02T00:15:51;7.00;92.50
42965;DHT22;28604;51.204;22.552;2024-03-02T00:18:29;7.00;92.50
42965;DHT22;28604;51.204;22.552;2024-03-02T00:20:56;7.00;92.70
42965;DHT22;28604;51.204;22.552;2024-03-02T00:23:23;7.00;92.50
42965;DHT22;28604;51.204;22.552;2024-03-02T00:25:54;7.00;92.50
42965;DHT22;28604;51.204;22.552;2024-03-02T00:28:25;7.00;92.60
42965;DHT22;28604;51.204;22.552;2024-03-02T00:33:26;6.90;92.70
42965;DHT22;28604;51.204;22.552;2024-03-02T00:35:52;6.90;92.60
42965;DHT22;28604;51.204;22.552;2024-03-02T00:38:18;6.90;92.70
42965;DHT22;28604;51.204;22.552;2024-03-02T00:40:45;7.00;92.50
42965;DHT22;28604;51.204;22.552;2024-03-02T00:46:19;7.00;92.60
42965;DHT22;28604;51.204;22.552;2024-03-02T00:48:56;7.00;92.60
42965;DHT22;28604;51.204;22.552;2024-03-02T00:51:24;6.90;92.60
42965;DHT22;28604;51.204;22.552;2024-03-02T00:53:51;6.90;93.00
42965;DHT22;28604;51.204;22.552;2024-03-02T00:56:18;6.90;92.80
42965;DHT22;28604;51.204;22.552;2024-03-02T00:58:44;6.90;92.90
42965;DHT22;28604;51.204;22.552;2024-03-02T01:01:11;6.90;92.70
42965;DHT22;28604;51.204;22.552;2024-03-02T01:03:36;6.90;92.80
42965;DHT22;28604;51.204;22.552;2024-03-02T01:06:03;6.90;92.70
42965;DHT22;28604;51.204;22.552;2024-03-02T01:08:29;6.90;92.70
42965;DHT22;28604;51.204;22.552;2024-03-02T01:10:55;6.90;92.80
42965;DHT22;28604;51.204;22.552;2024-03-02T01:13:22;6.90;92.80
42965;DHT22;28604;51.204;22.552;2024-03-02T01:15:49;6.90;92.90
42965;DHT22;28604;51.204;22.552;2024-03-02T01:18:15;6.90;92.80
42965;DHT22;28604;51.204;22.552;2024-03-02T01:20:42;6.90;92.80
42965;DHT22;28604;51.204;22.552;2024-03-02T01:23:07;6.90;92.90
42965;DHT22;28604;51.204;22.552;2024-03-02T01:25:34;7.00;92.90
42965;DHT22;28604;51.204;22.552;2024-03-02T01:27:59;6.90;92.80
42965;DHT22;28604;51.204;22.552;2024-03-02T01:30:25;6.90;92.80
42965;DHT22;28604;51.204;22.552;2024-03-02T01:32:51;7.00;92.70
42965;DHT22;28604;51.204;22.552;2024-03-02T01:35:17;7.00;92.60
42965;DHT22;28604;51.204;22.552;2024-03-02T01:37:43;7.00;92.60
42965;DHT22;28604;51.204;22.552;2024-03-02T01:40:10;7.00;92.50
42965;DHT22;28604;51.204;22.552;2024-03-02T01:42:39;7.00;92.70
42965;DHT22;28604;51.204;22.552;2024-03-02T01:45:06;7.00;92.70
42965;DHT22;28604;51.204;22.552;2024-03-02T01:47:33;7.00;92.60
42965;DHT22;28604;51.204;22.552;2024-03-02T01:49:59;6.90;92.60
42965;DHT22;28604;51.204;22.552;2024-03-02T01:52:26;6.90;92.80
42965;DHT22;28604;51.204;22.552;2024-03-02T01:54:52;7.00;92.80
42965;DHT22;28604;51.204;22.552;2024-03-02T01:57:18;6.90;92.70
42965;DHT22;28604;51.204;22.552;2024-03-02T01:59:45;6.90;92.80
42965;DHT22;28604;51.204;22.552;2024-03-02T02:02:14;6.90;92.90
42965;DHT22;28604;51.204;22.552;2024-03-02T02:04:40;6.90;92.90
42965;DHT22;28604;51.204;22.552;2024-03-02T02:07:06;6.80;92.90
42965;DHT22;28604;51.204;22.552;2024-03-02T02:09:32;6.90;92.80
42965;DHT22;28604;51.204;22.552;2024-03-02T02:11:58;6.90;92.80
42965;DHT22;28604;51.204;22.552;2024-03-02T02:14:25;6.90;92.90
42965;DHT22;28604;51.204;22.552;2024-03-02T02:16:51;6.90;92.90
42965;DHT22;28604;51.204;22.552;2024-03-02T02:19:18;6.90;92.90
42965;DHT22;28604;51.204;22.552;2024-03-02T02:21:44;6.90;93.00
42965;DHT22;28604;51.204;22.552;2024-03-02T02:24:10;6.90;93.00
42965;DHT22;28604;51.204;22.552;2024-03-02T02:26:38;6.90;93.00
42965;DHT22;28604;51.204;22.552;2024-03-02T02:29:05;6.80;93.00
42965;DHT22;28604;51.204;22.552;2024-03-02T02:31:41;6.80;93.20
42965;DHT22;28604;51.204;22.552;2024-03-02T02:34:07;6.80;93.10
42965;DHT22;28604;51.204;22.552;2024-03-02T02:36:37;6.80;93.10
42965;DHT22;28604;51.204;22.552;2024-03-02T02:39:04;6.80;93.00
42965;DHT22;28604;51.204;22.552;2024-03-02T02:41:32;6.90;93.00
42965;DHT22;28604;51.204;22.552;2024-03-02T02:43:58;6.80;93.10
42965;DHT22;28604;51.204;22.552;2024-03-02T02:46:24;6.80;93.10
42965;DHT22;28604;51.204;22.552;2024-03-02T02:48:50;6.90;93.00
42965;DHT22;28604;51.204;22.552;2024-03-02T02:51:18;6.90;93.00
42965;DHT22;28604;51.204;22.552;2024-03-02T02:53:45;6.90;92.90
42965;DHT22;28604;51.204;22.552;2024-03-02T02:56:10;6.90;92.80
42965;DHT22;28604;51.204;22.552;2024-03-02T02:58:37;6.90;92.90
42965;DHT22;28604;51.204;22.552;2024-03-02T03:01:03;6.80;93.00
42965;DHT22;28604;51.204;22.552;2024-03-02T03:03:29;6.80;93.10
42965;DHT22;28604;51.204;22.552;2024-03-02T03:05:55;6.80;93.00
42965;DHT22;28604;51.204;22.552;2024-03-02T03:08:21;6.80;93.10
42965;DHT22;28604;51.204;22.552;2024-03-02T03:10:49;6.80;93.10
42965;DHT22;28604;51.204;22.552;2024-03-02T03:13:15;6.80;93.10
42965;DHT22;28604;51.204;22.552;2024-03-02T03:15:41;6.70;93.10
42965;DHT22;28604;51.204;22.552;2024-03-02T03:18:07;6.70;93.10
42965;DHT22;28604;51.204;22.552;2024-03-02T03:20:33;6.80;93.20
42965;DHT22;28604;51.204;22.552;2024-03-02T03:23:00;6.80;93.10
42965;DHT22;28604;51.204;22.552;2024-03-02T03:25:26;6.80;93.20
42965;DHT22;28604;51.204;22.552;2024-03-02T03:27:52;6.80;93.20
42965;DHT22;28604;51.204;22.552;2024-03-02T03:30:20;6.80;93.30
42965;DHT22;28604;51.204;22.552;2024-03-02T03:35:46;6.80;93.00
42965;DHT22;28604;51.204;22.552;2024-03-02T03:38:12;6.80;93.10
42965;DHT22;28604;51.204;22.552;2024-03-02T03:40:38;6.80;93.20
42965;DHT22;28604;51.204;22.552;2024-03-02T03:43:04;6.80;93.10
42965;DHT22;28604;51.204;22.552;2024-03-02T03:45:29;6.80;93.20
42965;DHT22;28604;51.204;22.552;2024-03-02T03:47:56;6.80;93.10
42965;DHT22;28604;51.204;22.552;2024-03-02T03:50:22;6.80;93.10
42965;DHT22;28604;51.204;22.552;2024-03-02T03:52:48;6.70;93.20
42965;DHT22;28604;51.204;22.552;2024-03-02T03:55:14;6.70;93.20
42965;DHT22;28604;51.204;22.552;2024-03-02T03:57:40;6.80;93.20
42965;DHT22;28604;51.204;22.552;2024-03-02T04:00:06;6.80;93.20
42965;DHT22;28604;51.204;22.552;2024-03-02T04:02:39;6.80;93.10
42965;DHT22;28604;51.204;22.552;2024-03-02T04:05:05;6.80;93.10
42965;DHT22;28604;51.204;22.552;2024-03-02T04:07:37;6.80;93.20
42965;DHT22;28604;51.204;22.552;2024-03-02T04:10:07;6.80;93.20
42965;DHT22;28604;51.204;22.552;2024-03-02T04:12:35;6.80;93.40
42965;DHT22;28604;51.204;22.552;2024-03-02T04:15:05;6.80;93.20
42965;DHT22;28604;51.204;22.552;2024-03-02T04:17:33;6.80;93.20
42965;DHT22;28604;51.204;22.552;2024-03-02T04:19:59;6.70;93.30
42965;DHT22;28604;51.204;22.552;2024-03-02T04:22:27;6.80;93.40
42965;DHT22;28604;51.204;22.552;2024-03-02T04:24:53;6.70;93.40
42965;DHT22;28604;51.204;22.552;2024-03-02T04:27:19;6.70;93.50
42965;DHT22;28604;51.204;22.552;2024-03-02T04:29:45;6.70;93.40
42965;DHT22;28604;51.204;22.552;2024-03-02T04:32:11;6.70;93.30
42965;DHT22;28604;51.204;22.552;2024-03-02T04:34:37;6.70;93.50
42965;DHT22;28604;51.204;22.552;2024-03-02T04:37:03;6.70;93.40
42965;DHT22;28604;51.204;22.552;2024-03-02T04:39:29;6.80;93.50
42965;DHT22;28604;51.204;22.552;2024-03-02T04:41:55;6.80;93.40
42965;DHT22;28604;51.204;22.552;2024-03-02T04:44:21;6.80;93.30
42965;DHT22;28604;51.204;22.552;2024-03-02T04:46:47;6.90;93.30
42965;DHT22;28604;51.204;22.552;2024-03-02T04:49:13;6.70;93.40
42965;DHT22;28604;51.204;22.552;2024-03-02T04:51:39;6.80;93.40
42965;DHT22;28604;51.204;22.552;2024-03-02T04:54:05;6.80;93.40
42965;DHT22;28604;51.204;22.552;2024-03-02T04:56:31;6.80;93.40
42965;DHT22;28604;51.204;22.552;2024-03-02T04:58:57;6.80;93.60
42965;DHT22;28604;51.204;22.552;2024-03-02T05:01:23;6.70;93.40
42965;DHT22;28604;51.204;22.552;2024-03-02T05:03:49;6.70;93.50
42965;DHT22;28604;51.204;22.552;2024-03-02T05:06:15;6.70;93.50
42965;DHT22;28604;51.204;22.552;2024-03-02T05:08:41;6.70;93.70
42965;DHT22;28604;51.204;22.552;2024-03-02T05:11:07;6.70;93.50
42965;DHT22;28604;51.204;22.552;2024-03-02T05:13:51;6.70;93.60
42965;DHT22;28604;51.204;22.552;2024-03-02T05:16:17;6.70;93.80
42965;DHT22;28604;51.204;22.552;2024-03-02T05:18:43;6.70;93.70
42965;DHT22;28604;51.204;22.552;2024-03-02T05:21:09;6.80;93.50
42965;DHT22;28604;51.204;22.552;2024-03-02T05:23:35;6.70;93.70
42965;DHT22;28604;51.204;22.552;2024-03-02T05:26:01;6.70;93.70
42965;DHT22;28604;51.204;22.552;2024-03-02T05:28:27;6.70;93.70
42965;DHT22;28604;51.204;22.552;2024-03-02T05:30:53;6.70;93.80
42965;DHT22;28604;51.204;22.552;2024-03-02T05:33:19;6.70;93.60
42965;DHT22;28604;51.204;22.552;2024-03-02T05:35:48;6.80;93.60
42965;DHT22;28604;51.204;22.552;2024-03-02T05:38:15;6.70;93.60
42965;DHT22;28604;51.204;22.552;2024-03-02T05:40:41;6.70;93.70
42965;DHT22;28604;51.204;22.552;2024-03-02T05:43:07;6.70;93.80
42965;DHT22;28604;51.204;22.552;2024-03-02T05:45:33;6.70;93.60
42965;DHT22;28604;51.204;22.552;2024-03-02T05:47:59;6.70;93.70
42965;DHT22;28604;51.204;22.552;2024-03-02T05:50:25;6.70;93.70
42965;DHT22;28604;51.204;22.552;2024-03-02T05:52:52;6.80;93.50
42965;DHT22;28604;51.204;22.552;2024-03-02T05:55:18;6.80;93.50
42965;DHT22;28604;51.204;22.552;2024-03-02T05:57:44;6.80;93.60
42965;DHT22;28604;51.204;22.552;2024-03-02T06:00:10;6.80;93.50
42965;DHT22;28604;51.204;22.552;2024-03-02T06:02:40;6.80;93.70
42965;DHT22;28604;51.204;22.552;2024-03-02T06:05:06;6.80;93.60
42965;DHT22;28604;51.204;22.552;2024-03-02T06:07:35;6.90;93.40
42965;DHT22;28604;51.204;22.552;2024-03-02T06:10:01;6.80;93.50
42965;DHT22;28604;51.204;22.552;2024-03-02T06:12:27;6.90;93.30
42965;DHT22;28604;51.204;22.552;2024-03-02T06:14:53;6.80;93.60
42965;DHT22;28604;51.204;22.552;2024-03-02T06:17:19;6.90;93.50
42965;DHT22;28604;51.204;22.552;2024-03-02T06:19:45;6.80;93.40
42965;DHT22;28604;51.204;22.552;2024-03-02T06:22:12;6.90;93.30
42965;DHT22;28604;51.204;22.552;2024-03-02T06:24:38;6.90;93.20
42965;DHT22;28604;51.204;22.552;2024-03-02T06:27:04;6.90;93.30
42965;DHT22;28604;51.204;22.552;2024-03-02T06:29:33;6.90;93.30
42965;DHT22;28604;51.204;22.552;2024-03-02T06:31:59;6.90;93.20
42965;DHT22;28604;51.204;22.552;2024-03-02T06:34:25;6.80;93.20
42965;DHT22;28604;51.204;22.552;2024-03-02T06:36:52;6.80;93.30
42965;DHT22;28604;51.204;22.552;2024-03-02T06:39:17;6.80;93.30
42965;DHT22;28604;51.204;22.552;2024-03-02T06:41:44;6.80;93.30
42965;DHT22;28604;51.204;22.552;2024-03-02T06:44:09;6.80;93.30
42965;DHT22;28604;51.204;22.552;2024-03-02T06:46:36;6.80;93.30
42965;DHT22;28604;51.204;22.552;2024-03-02T06:49:01;6.80;93.20
42965;DHT22;28604;51.204;22.552;2024-03-02T06:51:28;6.90;93.20
42965;DHT22;28604;51.204;22.552;2024-03-02T06:53:54;6.90;93.20
42965;DHT22;28604;51.204;22.552;2024-03-02T06:56:21;6.90;93.10
42965;DHT22;28604;51.204;22.552;2024-03-02T06:58:47;6.90;93.00
42965;DHT22;28604;51.204;22.552;2024-03-02T07:01:13;6.90;93.10
42965;DHT22;28604;51.204;22.552;2024-03-02T07:03:39;6.80;93.20
42965;DHT22;28604;51.204;22.552;2024-03-02T07:06:05;6.70;93.20
42965;DHT22;28604;51.204;22.552;2024-03-02T07:08:31;6.90;93.20
42965;DHT22;28604;51.204;22.552;2024-03-02T07:10:57;6.90;93.10
42965;DHT22;28604;51.204;22.552;2024-03-02T07:13:23;6.90;92.90
42965;DHT22;28604;51.204;22.552;2024-03-02T07:15:49;6.90;92.90
42965;DHT22;28604;51.204;22.552;2024-03-02T07:18:34;6.90;92.90
42965;DHT22;28604;51.204;22.552;2024-03-02T07:21:03;6.90;92.90
42965;DHT22;28604;51.204;22.552;2024-03-02T07:23:29;6.90;92.80
42965;DHT22;28604;51.204;22.552;2024-03-02T07:25:56;6.90;92.70
42965;DHT22;28604;51.204;22.552;2024-03-02T07:28:31;6.90;92.60
42965;DHT22;28604;51.204;22.552;2024-03-02T07:31:02;6.90;92.60
42965;DHT22;28604;51.204;22.552;2024-03-02T07:33:28;6.90;92.80
42965;DHT22;28604;51.204;22.552;2024-03-02T07:35:55;6.90;92.60
42965;DHT22;28604;51.204;22.552;2024-03-02T07:38:26;6.90;92.70
42965;DHT22;28604;51.204;22.552;2024-03-02T07:40:52;6.90;92.60
42965;DHT22;28604;51.204;22.552;2024-03-02T07:43:21;7.00;92.40
42965;DHT22;28604;51.204;22.552;2024-03-02T07:45:47;6.90;92.40
42965;DHT22;28604;51.204;22.552;2024-03-02T07:48:15;7.00;92.50
42965;DHT22;28604;51.204;22.552;2024-03-02T07:50:41;7.00;92.50
42965;DHT22;28604;51.204;22.552;2024-03-02T07:53:07;7.00;92.60
42965;DHT22;28604;51.204;22.552;2024-03-02T07:55:34;7.00;92.50
42965;DHT22;28604;51.204;22.552;2024-03-02T07:58:00;6.90;92.40
42965;DHT22;28604;51.204;22.552;2024-03-02T08:00:27;7.10;92.30
42965;DHT22;28604;51.204;22.552;2024-03-02T08:02:54;7.00;92.40
42965;DHT22;28604;51.204;22.552;2024-03-02T08:05:21;7.00;92.40
42965;DHT22;28604;51.204;22.552;2024-03-02T08:07:47;7.00;92.50
42965;DHT22;28604;51.204;22.552;2024-03-02T08:10:14;7.00;92.60
42965;DHT22;28604;51.204;22.552;2024-03-02T08:12:40;6.90;92.50
42965;DHT22;28604;51.204;22.552;2024-03-02T08:15:06;6.90;92.50
42965;DHT22;28604;51.204;22.552;2024-03-02T08:17:32;7.00;92.50
42965;DHT22;28604;51.204;22.552;2024-03-02T08:19:58;7.00;92.50
42965;DHT22;28604;51.204;22.552;2024-03-02T08:22:24;7.00;92.40
42965;DHT22;28604;51.204;22.552;2024-03-02T08:24:53;7.00;92.40
42965;DHT22;28604;51.204;22.552;2024-03-02T08:27:20;7.10;92.50
42965;DHT22;28604;51.204;22.552;2024-03-02T08:29:46;7.10;92.30
42965;DHT22;28604;51.204;22.552;2024-03-02T08:32:12;7.20;92.30
42965;DHT22;28604;51.204;22.552;2024-03-02T08:34:38;7.10;92.40
42965;DHT22;28604;51.204;22.552;2024-03-02T08:37:04;7.10;92.20
42965;DHT22;28604;51.204;22.552;2024-03-02T08:39:30;7.10;92.30
42965;DHT22;28604;51.204;22.552;2024-03-02T08:41:57;7.10;92.30
42965;DHT22;28604;51.204;22.552;2024-03-02T08:44:22;7.10;92.30
42965;DHT22;28604;51.204;22.552;2024-03-02T08:46:49;7.10;92.30
42965;DHT22;28604;51.204;22.552;2024-03-02T08:49:14;7.10;92.30
42965;DHT22;28604;51.204;22.552;2024-03-02T08:51:41;7.20;92.30
42965;DHT22;28604;51.204;22.552;2024-03-02T08:54:06;7.20;92.60
42965;DHT22;28604;51.204;22.552;2024-03-02T08:56:33;7.20;92.20
42965;DHT22;28604;51.204;22.552;2024-03-02T08:58:58;7.20;92.30
42965;DHT22;28604;51.204;22.552;2024-03-02T09:01:25;7.20;92.30
42965;DHT22;28604;51.204;22.552;2024-03-02T09:03:51;7.30;92.40
42965;DHT22;28604;51.204;22.552;2024-03-02T09:06:17;7.30;92.40
42965;DHT22;28604;51.204;22.552;2024-03-02T09:08:43;7.30;92.10
42965;DHT22;28604;51.204;22.552;2024-03-02T09:11:10;7.50;92.30
42965;DHT22;28604;51.204;22.552;2024-03-02T09:13:37;7.40;92.10
42965;DHT22;28604;51.204;22.552;2024-03-02T09:16:04;7.40;92.20
42965;DHT22;28604;51.204;22.552;2024-03-02T09:18:31;7.40;92.30
42965;DHT22;28604;51.204;22.552;2024-03-02T09:20:57;7.40;92.10
42965;DHT22;28604;51.204;22.552;2024-03-02T09:23:23;7.40;92.10
42965;DHT22;28604;51.204;22.552;2024-03-02T09:25:49;7.40;92.00
42965;DHT22;28604;51.204;22.552;2024-03-02T09:28:18;7.50;92.00
42965;DHT22;28604;51.204;22.552;2024-03-02T09:30:44;7.50;92.00
42965;DHT22;28604;51.204;22.552;2024-03-02T09:33:10;7.60;92.10
42965;DHT22;28604;51.204;22.552;2024-03-02T09:35:36;7.60;92.00
42965;DHT22;28604;51.204;22.552;2024-03-02T09:38:02;7.70;91.90
42965;DHT22;28604;51.204;22.552;2024-03-02T09:40:29;7.70;91.90
42965;DHT22;28604;51.204;22.552;2024-03-02T09:42:55;7.80;91.80
42965;DHT22;28604;51.204;22.552;2024-03-02T09:45:23;7.90;91.70
42965;DHT22;28604;51.204;22.552;2024-03-02T09:47:50;8.00;91.80
42965;DHT22;28604;51.204;22.552;2024-03-02T09:50:17;8.00;91.60
42965;DHT22;28604;51.204;22.552;2024-03-02T09:52:43;8.00;91.50
42965;DHT22;28604;51.204;22.552;2024-03-02T09:55:09;8.10;91.50
42965;DHT22;28604;51.204;22.552;2024-03-02T09:57:37;8.10;91.50
42965;DHT22;28604;51.204;22.552;2024-03-02T10:00:03;8.10;91.50
42965;DHT22;28604;51.204;22.552;2024-03-02T10:02:30;8.10;91.50
42965;DHT22;28604;51.204;22.552;2024-03-02T10:04:56;8.20;91.40
42965;DHT22;28604;51.204;22.552;2024-03-02T10:07:22;8.20;91.40
42965;DHT22;28604;51.204;22.552;2024-03-02T10:09:49;8.30;91.40
42965;DHT22;28604;51.204;22.552;2024-03-02T10:12:16;8.30;91.40
42965;DHT22;28604;51.204;22.552;2024-03-02T10:14:49;8.30;91.30
42965;DHT22;28604;51.204;22.552;2024-03-02T10:17:17;8.40;91.20
42965;DHT22;28604;51.204;22.552;2024-03-02T10:19:43;8.40;91.10
42965;DHT22;28604;51.204;22.552;2024-03-02T10:22:10;8.50;91.30
42965;DHT22;28604;51.204;22.552;2024-03-02T10:24:44;8.60;90.80
42965;DHT22;28604;51.204;22.552;2024-03-02T10:29:41;8.60;90.80
42965;DHT22;28604;51.204;22.552;2024-03-02T10:32:10;8.70;90.80
42965;DHT22;28604;51.204;22.552;2024-03-02T10:34:39;8.70;91.00
42965;DHT22;28604;51.204;22.552;2024-03-02T10:37:06;8.70;90.90
42965;DHT22;28604;51.204;22.552;2024-03-02T10:39:35;8.80;90.50
42965;DHT22;28604;51.204;22.552;2024-03-02T10:42:07;8.80;90.60
42965;DHT22;28604;51.204;22.552;2024-03-02T10:44:33;8.80;90.60
42965;DHT22;28604;51.204;22.552;2024-03-02T10:47:05;8.80;90.70
42965;DHT22;28604;51.204;22.552;2024-03-02T10:49:32;8.90;90.70
42965;DHT22;28604;51.204;22.552;2024-03-02T10:51:59;8.90;90.60
42965;DHT22;28604;51.204;22.552;2024-03-02T10:54:25;9.00;90.40
42965;DHT22;28604;51.204;22.552;2024-03-02T10:56:58;9.00;90.50
42965;DHT22;28604;51.204;22.552;2024-03-02T10:59:28;9.10;90.60
42965;DHT22;28604;51.204;22.552;2024-03-02T11:01:58;9.10;90.40
42965;DHT22;28604;51.204;22.552;2024-03-02T11:04:29;9.20;90.30
42965;DHT22;28604;51.204;22.552;2024-03-02T11:07:09;9.30;90.20
42965;DHT22;28604;51.204;22.552;2024-03-02T11:09:40;9.30;90.00
42965;DHT22;28604;51.204;22.552;2024-03-02T11:12:31;9.40;90.00
42965;DHT22;28604;51.204;22.552;2024-03-02T11:15:04;9.50;90.00
42965;DHT22;28604;51.204;22.552;2024-03-02T11:17:34;9.50;90.00
42965;DHT22;28604;51.204;22.552;2024-03-02T11:20:03;9.60;90.10
42965;DHT22;28604;51.204;22.552;2024-03-02T11:22:29;9.70;89.90
42965;DHT22;28604;51.204;22.552;2024-03-02T11:24:55;9.80;89.70
42965;DHT22;28604;51.204;22.552;2024-03-02T11:33:04;9.70;89.80
42965;DHT22;28604;51.204;22.552;2024-03-02T11:35:43;9.80;90.10
42965;DHT22;28604;51.204;22.552;2024-03-02T11:38:12;9.80;89.90
42965;DHT22;28604;51.204;22.552;2024-03-02T11:40:41;9.90;88.90
42965;DHT22;28604;51.204;22.552;2024-03-02T11:43:09;9.90;89.30
42965;DHT22;28604;51.204;22.552;2024-03-02T11:45:36;9.80;89.40
42965;DHT22;28604;51.204;22.552;2024-03-02T11:48:06;9.90;89.70
42965;DHT22;28604;51.204;22.552;2024-03-02T11:50:46;9.90;89.90
42965;DHT22;28604;51.204;22.552;2024-03-02T11:53:12;10.00;89.40
42965;DHT22;28604;51.204;22.552;2024-03-02T11:55:39;10.00;89.40
42965;DHT22;28604;51.204;22.552;2024-03-02T11:58:15;10.10;88.80
42965;DHT22;28604;51.204;22.552;2024-03-02T12:00:46;10.20;88.60
42965;DHT22;28604;51.204;22.552;2024-03-02T12:03:13;10.20;89.10
42965;DHT22;28604;51.204;22.552;2024-03-02T12:05:41;10.20;88.60
42965;DHT22;28604;51.204;22.552;2024-03-02T12:08:08;10.20;88.40
42965;DHT22;28604;51.204;22.552;2024-03-02T12:10:35;10.20;88.50
42965;DHT22;28604;51.204;22.552;2024-03-02T12:13:03;10.20;88.30
42965;DHT22;28604;51.204;22.552;2024-03-02T12:15:31;10.30;88.40
42965;DHT22;28604;51.204;22.552;2024-03-02T12:17:59;10.30;88.70
42965;DHT22;28604;51.204;22.552;2024-03-02T12:20:27;10.30;88.80
42965;DHT22;28604;51.204;22.552;2024-03-02T12:22:56;10.40;88.50
42965;DHT22;28604;51.204;22.552;2024-03-02T12:25:24;10.40;88.80
42965;DHT22;28604;51.204;22.552;2024-03-02T12:27:56;10.50;87.90
42965;DHT22;28604;51.204;22.552;2024-03-02T12:30:22;10.50;88.40
42965;DHT22;28604;51.204;22.552;2024-03-02T12:32:49;10.50;87.80
42965;DHT22;28604;51.204;22.552;2024-03-02T12:35:15;10.60;88.00
42965;DHT22;28604;51.204;22.552;2024-03-02T12:37:46;10.60;88.10
42965;DHT22;28604;51.204;22.552;2024-03-02T12:40:13;10.60;87.80
42965;DHT22;28604;51.204;22.552;2024-03-02T12:42:39;10.60;87.60
42965;DHT22;28604;51.204;22.552;2024-03-02T12:45:06;10.60;87.70
42965;DHT22;28604;51.204;22.552;2024-03-02T12:47:34;10.60;87.60
42965;DHT22;28604;51.204;22.552;2024-03-02T12:50:00;10.60;88.00
42965;DHT22;28604;51.204;22.552;2024-03-02T12:52:26;10.60;88.40
42965;DHT22;28604;51.204;22.552;2024-03-02T12:54:53;10.60;87.60
42965;DHT22;28604;51.204;22.552;2024-03-02T12:57:28;10.50;88.20
42965;DHT22;28604;51.204;22.552;2024-03-02T13:00:05;10.50;88.00
42965;DHT22;28604;51.204;22.552;2024-03-02T13:02:35;10.60;87.10
42965;DHT22;28604;51.204;22.552;2024-03-02T13:05:02;10.50;86.90
42965;DHT22;28604;51.204;22.552;2024-03-02T13:07:29;10.60;86.70
42965;DHT22;28604;51.204;22.552;2024-03-02T13:09:55;10.50;87.20
42965;DHT22;28604;51.204;22.552;2024-03-02T13:12:23;10.50;87.30
42965;DHT22;28604;51.204;22.552;2024-03-02T13:14:51;10.50;87.80
42965;DHT22;28604;51.204;22.552;2024-03-02T13:17:18;10.50;87.80
42965;DHT22;28604;51.204;22.552;2024-03-02T13:19:57;10.50;87.80
42965;DHT22;28604;51.204;22.552;2024-03-02T13:22:24;10.50;87.40
42965;DHT22;28604;51.204;22.552;2024-03-02T13:24:51;10.40;87.10
42965;DHT22;28604;51.204;22.552;2024-03-02T13:27:17;10.50;87.30
42965;DHT22;28604;51.204;22.552;2024-03-02T13:29:47;10.40;87.40
42965;DHT22;28604;51.204;22.552;2024-03-02T13:32:14;10.40;87.60
42965;DHT22;28604;51.204;22.552;2024-03-02T13:34:40;10.40;88.00
42965;DHT22;28604;51.204;22.552;2024-03-02T13:37:07;10.40;87.50
42965;DHT22;28604;51.204;22.552;2024-03-02T13:39:33;10.30;87.60
42965;DHT22;28604;51.204;22.552;2024-03-02T13:42:07;10.30;87.90
42965;DHT22;28604;51.204;22.552;2024-03-02T13:44:34;10.40;87.70
42965;DHT22;28604;51.204;22.552;2024-03-02T13:47:00;10.40;87.50
42965;DHT22;28604;51.204;22.552;2024-03-02T13:49:26;10.30;87.40
42965;DHT22;28604;51.204;22.552;2024-03-02T13:52:06;10.30;88.30
42965;DHT22;28604;51.204;22.552;2024-03-02T13:54:46;10.20;88.80
42965;DHT22;28604;51.204;22.552;2024-03-02T13:57:13;10.20;88.70
42965;DHT22;28604;51.204;22.552;2024-03-02T13:59:41;10.30;88.30
42965;DHT22;28604;51.204;22.552;2024-03-02T14:02:08;10.30;88.20
42965;DHT22;28604;51.204;22.552;2024-03-02T14:04:35;10.20;88.20
42965;DHT22;28604;51.204;22.552;2024-03-02T14:07:02;10.30;88.30
42965;DHT22;28604;51.204;22.552;2024-03-02T14:09:28;10.20;88.60
42965;DHT22;28604;51.204;22.552;2024-03-02T14:11:54;10.20;88.60
42965;DHT22;28604;51.204;22.552;2024-03-02T14:14:21;10.20;88.70
42965;DHT22;28604;51.204;22.552;2024-03-02T14:16:47;10.20;88.90
42965;DHT22;28604;51.204;22.552;2024-03-02T14:19:13;10.20;88.50
42965;DHT22;28604;51.204;22.552;2024-03-02T14:21:40;10.30;88.30
42965;DHT22;28604;51.204;22.552;2024-03-02T14:24:05;10.30;88.50
42965;DHT22;28604;51.204;22.552;2024-03-02T14:26:36;10.20;88.70
42965;DHT22;28604;51.204;22.552;2024-03-02T14:29:04;10.20;88.30
42965;DHT22;28604;51.204;22.552;2024-03-02T14:31:31;10.20;88.40
42965;DHT22;28604;51.204;22.552;2024-03-02T14:33:57;10.20;88.20
42965;DHT22;28604;51.204;22.552;2024-03-02T14:36:23;10.30;87.90
42965;DHT22;28604;51.204;22.552;2024-03-02T14:38:49;10.20;88.00
42965;DHT22;28604;51.204;22.552;2024-03-02T14:41:16;10.20;88.20
42965;DHT22;28604;51.204;22.552;2024-03-02T14:43:42;10.20;88.30
42965;DHT22;28604;51.204;22.552;2024-03-02T14:46:08;10.10;88.70
42965;DHT22;28604;51.204;22.552;2024-03-02T14:48:35;10.10;88.30
42965;DHT22;28604;51.204;22.552;2024-03-02T14:51:02;10.10;88.30
42965;DHT22;28604;51.204;22.552;2024-03-02T14:53:28;10.10;88.00
42965;DHT22;28604;51.204;22.552;2024-03-02T14:55:54;10.10;88.40
42965;DHT22;28604;51.204;22.552;2024-03-02T14:58:21;10.10;88.00
42965;DHT22;28604;51.204;22.552;2024-03-02T15:00:47;10.00;88.40
42965;DHT22;28604;51.204;22.552;2024-03-02T15:03:13;10.00;88.70
42965;DHT22;28604;51.204;22.552;2024-03-02T15:05:39;10.00;88.70
42965;DHT22;28604;51.204;22.552;2024-03-02T15:08:06;10.00;88.50
42965;DHT22;28604;51.204;22.552;2024-03-02T15:10:32;10.00;88.30
42965;DHT22;28604;51.204;22.552;2024-03-02T15:12:58;10.00;88.70
42965;DHT22;28604;51.204;22.552;2024-03-02T15:15:25;10.00;88.50
42965;DHT22;28604;51.204;22.552;2024-03-02T15:17:51;10.00;88.60
42965;DHT22;28604;51.204;22.552;2024-03-02T15:20:18;10.00;88.70
42965;DHT22;28604;51.204;22.552;2024-03-02T15:22:46;10.00;89.00
42965;DHT22;28604;51.204;22.552;2024-03-02T15:25:12;10.00;88.20
42965;DHT22;28604;51.204;22.552;2024-03-02T15:27:39;10.00;88.20
42965;DHT22;28604;51.204;22.552;2024-03-02T15:30:06;9.90;88.40
42965;DHT22;28604;51.204;22.552;2024-03-02T15:32:32;9.90;88.70
42965;DHT22;28604;51.204;22.552;2024-03-02T15:35:00;9.80;88.80
42965;DHT22;28604;51.204;22.552;2024-03-02T15:37:26;9.90;88.90
42965;DHT22;28604;51.204;22.552;2024-03-02T15:39:52;9.80;88.90
42965;DHT22;28604;51.204;22.552;2024-03-02T15:42:18;9.90;89.00
42965;DHT22;28604;51.204;22.552;2024-03-02T15:44:45;9.80;89.00